createdAt,value
2019-06-26T00:01:59.579Z,26.80
2019-06-26T00:04:28.149Z,26.80
2019-06-26T00:06:56.711Z,26.80
2019-06-26T00:09:25.285Z,26.80
2019-06-26T00:11:53.857Z,26.80
2019-06-26T00:14:22.418Z,26.80
2019-06-26T00:16:50.988Z,26.80
2019-06-26T00:19:19.536Z,26.90
2019-06-26T00:21:48.238Z,26.90
2019-06-26T00:24:16.791Z,26.90
2019-06-26T00:26:45.437Z,26.80
2019-06-26T00:29:13.913Z,26.80
2019-06-26T00:31:42.492Z,26.80
2019-06-26T00:34:11.059Z,26.80
2019-06-26T00:36:39.622Z,26.70
2019-06-26T00:39:08.273Z,26.80
2019-06-26T00:41:36.830Z,26.80
2019-06-26T00:44:05.519Z,26.70
2019-06-26T00:46:34.136Z,26.80
2019-06-26T00:49:02.724Z,26.80
2019-06-26T00:51:31.297Z,26.70
2019-06-26T00:53:59.809Z,26.70
2019-06-26T00:56:28.415Z,26.80
2019-06-26T00:58:57.070Z,26.70
2019-06-26T01:01:25.612Z,26.70
2019-06-26T01:03:55.756Z,26.80
2019-06-26T01:06:42.131Z,26.80
2019-06-26T01:09:11.151Z,26.80
2019-06-26T01:11:39.731Z,26.60
2019-06-26T01:14:08.407Z,26.50
2019-06-26T01:16:37.164Z,26.50
2019-06-26T01:19:05.686Z,26.50
2019-06-26T01:21:34.270Z,26.40
2019-06-26T01:24:02.826Z,26.30
2019-06-26T01:26:31.416Z,26.40
2019-06-26T01:28:59.903Z,26.30
2019-06-26T01:31:28.474Z,26.40
2019-06-26T01:33:56.950Z,26.30
2019-06-26T01:36:25.431Z,26.30
2019-06-26T01:38:54.086Z,26.30
2019-06-26T01:41:22.649Z,26.20
2019-06-26T01:43:51.209Z,26.10
2019-06-26T01:46:19.692Z,26.10
2019-06-26T01:48:48.264Z,26.10
2019-06-26T01:51:16.826Z,26.10
2019-06-26T01:53:45.412Z,26.10
2019-06-26T01:56:13.967Z,26.10
2019-06-26T01:58:42.558Z,26.10
2019-06-26T02:01:11.134Z,26.10
2019-06-26T02:03:39.777Z,26.10
2019-06-26T02:06:08.400Z,26.10
2019-06-26T02:08:37.082Z,26.10
2019-06-26T02:11:05.827Z,26.10
2019-06-26T02:13:34.411Z,26.10
2019-06-26T02:16:02.973Z,26.10
2019-06-26T02:18:33.160Z,26.00
2019-06-26T02:21:01.650Z,26.00
2019-06-26T02:23:30.436Z,26.00
2019-06-26T02:25:58.978Z,25.90
2019-06-26T02:28:27.552Z,25.90
2019-06-26T02:30:56.107Z,25.90
2019-06-26T02:33:24.732Z,25.90
2019-06-26T02:35:53.341Z,25.80
2019-06-26T02:38:22.049Z,25.80
2019-06-26T02:40:50.801Z,25.80
2019-06-26T02:43:19.378Z,25.80
2019-06-26T02:45:47.885Z,25.80
2019-06-26T02:48:16.510Z,25.80
2019-06-26T02:50:44.994Z,25.80
2019-06-26T02:53:13.491Z,25.80
2019-06-26T02:55:42.323Z,25.70
2019-06-26T02:58:10.992Z,25.70
2019-06-26T03:00:39.647Z,25.70
2019-06-26T03:03:08.366Z,25.60
2019-06-26T03:05:37.014Z,25.60
2019-06-26T03:08:05.670Z,25.60
2019-06-26T03:10:34.166Z,25.60
2019-06-26T03:13:02.653Z,25.70
2019-06-26T03:15:31.281Z,25.60
2019-06-26T03:17:59.826Z,25.50
2019-06-26T03:20:31.416Z,25.60
2019-06-26T03:22:59.984Z,25.50
2019-06-26T03:25:28.556Z,25.60
2019-06-26T03:27:57.106Z,25.60
2019-06-26T03:30:25.922Z,25.50
2019-06-26T03:32:54.547Z,25.50
2019-06-26T03:35:23.130Z,25.50
2019-06-26T03:37:51.684Z,25.50
2019-06-26T03:40:20.318Z,25.50
2019-06-26T03:42:48.806Z,25.60
2019-06-26T03:45:25.562Z,25.50
2019-06-26T03:47:47.848Z,25.50
2019-06-26T03:50:16.488Z,25.40
2019-06-26T03:52:45.043Z,25.40
2019-06-26T03:55:14.194Z,25.40
2019-06-26T03:57:42.719Z,25.50
2019-06-26T04:00:13.210Z,25.60
2019-06-26T04:02:41.730Z,25.50
2019-06-26T04:05:11.030Z,25.60
2019-06-26T04:07:39.651Z,25.60
2019-06-26T04:10:08.596Z,25.50
2019-06-26T04:12:37.222Z,25.50
2019-06-26T04:15:07.248Z,25.60
2019-06-26T04:17:35.802Z,25.60
2019-06-26T04:20:06.329Z,25.60
2019-06-26T04:22:34.886Z,25.60
2019-06-26T04:25:05.225Z,25.60
2019-06-26T04:27:33.774Z,25.50
2019-06-26T04:30:02.448Z,25.60
2019-06-26T04:32:30.930Z,25.60
2019-06-26T04:34:59.520Z,25.60
2019-06-26T04:37:27.995Z,25.60
2019-06-26T04:39:56.494Z,25.70
2019-06-26T04:42:25.050Z,25.70
2019-06-26T04:44:53.624Z,25.70
2019-06-26T04:47:22.986Z,25.70
2019-06-26T04:49:51.574Z,25.70
2019-06-26T04:52:20.208Z,25.70
2019-06-26T04:54:48.788Z,25.80
2019-06-26T04:57:17.291Z,25.90
2019-06-26T04:59:45.881Z,25.90
2019-06-26T05:02:14.641Z,25.90
2019-06-26T05:04:43.194Z,25.90
2019-06-26T05:07:11.765Z,26.00
2019-06-26T05:09:40.241Z,25.90
2019-06-26T05:12:08.753Z,26.10
2019-06-26T05:14:37.381Z,26.00
2019-06-26T05:17:07.117Z,26.00
2019-06-26T05:19:35.587Z,26.10
2019-06-26T05:22:04.531Z,26.10
2019-06-26T05:24:33.054Z,26.10
2019-06-26T05:27:01.738Z,26.10
2019-06-26T05:29:30.182Z,26.10
2019-06-26T05:31:58.653Z,26.30
2019-06-26T05:34:27.080Z,26.30
2019-06-26T05:36:55.619Z,26.30
2019-06-26T05:39:24.173Z,26.40
2019-06-26T05:41:52.746Z,26.50
2019-06-26T05:44:21.462Z,26.50
2019-06-26T05:46:49.927Z,26.50
2019-06-26T05:49:18.402Z,26.60
2019-06-26T05:51:46.926Z,26.60
2019-06-26T05:54:15.460Z,26.70
2019-06-26T05:56:45.442Z,26.80
2019-06-26T05:59:14.239Z,26.80
2019-06-26T06:01:42.687Z,26.80
2019-06-26T06:04:11.137Z,26.80
2019-06-26T06:06:42.078Z,26.90
2019-06-26T06:09:09.825Z,27.00
2019-06-26T06:11:38.336Z,27.00
2019-06-26T06:14:06.980Z,27.10
2019-06-26T06:16:46.830Z,27.10
2019-06-26T06:19:05.840Z,27.20
2019-06-26T06:21:34.415Z,27.30
2019-06-26T06:24:03.395Z,27.30
2019-06-26T06:26:31.903Z,27.40
2019-06-26T06:29:00.363Z,27.50
2019-06-26T06:31:28.941Z,27.50
2019-06-26T06:33:57.475Z,27.50
2019-06-26T06:36:25.917Z,27.60
2019-06-26T06:38:54.370Z,27.70
2019-06-26T06:41:22.949Z,27.70
2019-06-26T06:43:51.403Z,27.80
2019-06-26T06:46:19.919Z,27.80
2019-06-26T06:48:48.379Z,28.00
2019-06-26T06:51:16.825Z,28.00
2019-06-26T06:53:45.277Z,28.00
2019-06-26T06:56:14.974Z,28.10
2019-06-26T06:58:43.450Z,28.10
2019-06-26T07:01:12.027Z,28.10
2019-06-26T07:03:40.491Z,28.30
2019-06-26T07:06:09.104Z,28.30
2019-06-26T07:08:37.637Z,28.30
2019-06-26T07:11:06.078Z,28.50
2019-06-26T07:13:34.545Z,28.60
2019-06-26T07:16:02.980Z,28.50
2019-06-26T07:18:31.443Z,28.70
2019-06-26T07:21:00.061Z,28.80
2019-06-26T07:23:28.553Z,28.90
2019-06-26T07:25:57.062Z,28.90
2019-06-26T07:28:25.583Z,29.00
2019-06-26T07:30:54.151Z,29.00
2019-06-26T07:33:22.695Z,29.20
2019-06-26T07:35:51.137Z,29.20
2019-06-26T07:38:19.675Z,29.30
2019-06-26T07:40:48.220Z,29.40
2019-06-26T07:43:16.906Z,29.50
2019-06-26T07:45:45.569Z,29.60
2019-06-26T07:48:14.053Z,29.80
2019-06-26T07:50:42.584Z,29.80
2019-06-26T07:53:11.029Z,29.70
2019-06-26T07:55:40.543Z,29.80
2019-06-26T07:58:09.194Z,30.10
2019-06-26T08:00:37.664Z,30.20
2019-06-26T08:03:07.522Z,30.40
2019-06-26T08:05:37.137Z,30.40
2019-06-26T08:08:05.653Z,30.40
2019-06-26T08:10:34.130Z,30.60
2019-06-26T08:13:02.702Z,30.70
2019-06-26T08:15:31.257Z,30.90
2019-06-26T08:18:01.542Z,30.80
2019-06-26T08:20:30.014Z,30.90
2019-06-26T08:22:58.570Z,31.00
2019-06-26T08:25:27.308Z,31.00
2019-06-26T08:27:55.834Z,31.20
2019-06-26T08:30:24.557Z,31.30
2019-06-26T08:32:53.505Z,31.40
2019-06-26T08:35:22.128Z,31.60
2019-06-26T08:37:50.694Z,31.60
2019-06-26T08:40:21.356Z,31.70
2019-06-26T08:42:49.974Z,31.90
2019-06-26T08:45:19.887Z,31.90
2019-06-26T08:47:48.366Z,31.90
2019-06-26T08:50:17.554Z,32.10
2019-06-26T08:52:46.104Z,32.10
2019-06-26T08:55:14.873Z,32.10
2019-06-26T08:57:43.364Z,32.20
2019-06-26T09:00:12.484Z,32.20
2019-06-26T09:02:41.071Z,32.20
2019-06-26T09:05:09.934Z,32.30
2019-06-26T09:07:38.572Z,32.50
2019-06-26T09:10:08.157Z,32.40
2019-06-26T09:12:36.793Z,32.40
2019-06-26T09:15:06.786Z,32.50
2019-06-26T09:17:35.993Z,32.60
2019-06-26T09:20:06.105Z,32.70
2019-06-26T09:22:36.576Z,32.80
2019-06-26T09:25:20.992Z,33.00
2019-06-26T09:27:38.688Z,32.90
2019-06-26T09:30:08.211Z,32.90
2019-06-26T09:32:36.861Z,33.00
2019-06-26T09:35:06.393Z,33.00
2019-06-26T09:37:35.031Z,33.10
2019-06-26T09:40:04.443Z,33.20
2019-06-26T09:42:33.018Z,33.30
2019-06-26T09:45:01.673Z,33.40
2019-06-26T09:47:31.175Z,33.50
2019-06-26T09:49:59.897Z,33.60
2019-06-26T09:52:28.470Z,33.80
2019-06-26T09:54:57.077Z,33.80
2019-06-26T09:57:25.659Z,33.90
2019-06-26T09:59:54.209Z,34.00
2019-06-26T10:02:22.780Z,33.90
2019-06-26T10:04:51.356Z,33.90
2019-06-26T10:07:19.951Z,33.90
2019-06-26T10:09:48.480Z,34.10
2019-06-26T10:12:17.251Z,34.20
2019-06-26T10:14:47.988Z,34.20
2019-06-26T10:17:16.026Z,34.30
2019-06-26T10:19:44.640Z,34.30
2019-06-26T10:22:13.270Z,34.50
2019-06-26T10:24:41.774Z,34.60
2019-06-26T10:27:10.346Z,34.60
2019-06-26T10:29:38.881Z,34.70
2019-06-26T10:32:07.381Z,34.70
2019-06-26T10:34:35.938Z,34.80
2019-06-26T10:37:04.578Z,35.00
2019-06-26T10:39:33.135Z,35.10
2019-06-26T10:42:01.697Z,35.20
2019-06-26T10:44:30.290Z,35.30
2019-06-26T10:46:58.835Z,35.50
2019-06-26T10:49:28.013Z,35.50
2019-06-26T10:51:56.807Z,35.60
2019-06-26T10:54:25.438Z,35.70
2019-06-26T10:56:53.960Z,35.60
2019-06-26T10:59:22.505Z,36.10
2019-06-26T11:01:51.171Z,36.30
2019-06-26T11:04:19.755Z,37.00
2019-06-26T11:06:48.349Z,37.20
2019-06-26T11:09:16.881Z,37.30
2019-06-26T11:11:45.451Z,37.30
2019-06-26T11:14:13.996Z,37.90
2019-06-26T11:16:43.412Z,38.70
2019-06-26T11:19:11.970Z,39.30
2019-06-26T11:21:40.555Z,39.50
2019-06-26T11:24:09.099Z,39.40
2019-06-26T11:26:37.682Z,40.60
2019-06-26T11:29:06.237Z,41.20
2019-06-26T11:31:34.784Z,40.70
2019-06-26T11:34:03.248Z,41.80
2019-06-26T11:36:31.815Z,42.30
2019-06-26T11:39:00.378Z,43.00
2019-06-26T11:41:29.078Z,42.60
2019-06-26T11:43:57.656Z,42.50
2019-06-26T11:46:26.205Z,43.00
2019-06-26T11:48:54.855Z,43.30
2019-06-26T11:51:23.406Z,43.20
2019-06-26T11:53:52.198Z,43.30
2019-06-26T11:56:20.834Z,43.90
2019-06-26T11:58:49.407Z,44.00
2019-06-26T12:01:17.974Z,43.70
2019-06-26T12:03:46.504Z,44.20
2019-06-26T12:06:18.993Z,44.20
2019-06-26T12:08:45.215Z,43.80
2019-06-26T12:11:13.829Z,43.90
2019-06-26T12:13:42.423Z,44.40
2019-06-26T12:16:10.941Z,44.30
2019-06-26T12:18:39.527Z,44.60
2019-06-26T12:21:08.163Z,44.60
2019-06-26T12:23:36.683Z,44.60
2019-06-26T12:26:05.318Z,44.40
2019-06-26T12:28:33.788Z,43.10
2019-06-26T12:31:02.344Z,42.20
2019-06-26T12:33:30.910Z,42.20
2019-06-26T12:35:59.493Z,41.90
2019-06-26T12:38:28.052Z,41.90
2019-06-26T12:40:56.606Z,41.90
2019-06-26T12:43:25.162Z,41.60
2019-06-26T12:45:53.732Z,41.60
2019-06-26T12:48:22.275Z,40.80
2019-06-26T12:50:50.832Z,40.40
2019-06-26T12:53:19.311Z,40.40
2019-06-26T12:55:48.095Z,40.60
2019-06-26T12:58:19.983Z,39.90
2019-06-26T13:00:46.943Z,39.60
2019-06-26T13:03:15.501Z,39.40
2019-06-26T13:05:44.063Z,39.40
2019-06-26T13:08:12.627Z,39.50
2019-06-26T13:10:49.684Z,39.00
2019-06-26T13:13:11.470Z,38.60
2019-06-26T13:15:39.966Z,38.30
2019-06-26T13:18:08.590Z,38.50
2019-06-26T13:20:51.682Z,38.70
2019-06-26T13:23:07.395Z,38.70
2019-06-26T13:25:35.934Z,38.80
2019-06-26T13:28:04.588Z,38.50
2019-06-26T13:30:38.261Z,38.30
2019-06-26T13:33:07.472Z,38.20
2019-06-26T13:35:36.000Z,38.20
2019-06-26T13:38:04.694Z,38.10
2019-06-26T13:40:33.298Z,38.10
2019-06-26T13:43:01.967Z,38.20
2019-06-26T13:45:30.519Z,38.20
2019-06-26T13:47:59.166Z,38.00
2019-06-26T13:50:27.730Z,38.10
2019-06-26T13:52:56.286Z,38.00
2019-06-26T13:55:24.824Z,38.10
2019-06-26T13:57:53.452Z,38.10
2019-06-26T14:00:22.375Z,38.00
2019-06-26T14:02:51.002Z,37.60
2019-06-26T14:05:19.598Z,37.70
2019-06-26T14:07:48.139Z,37.60
2019-06-26T14:10:17.144Z,37.60
2019-06-26T14:12:45.787Z,37.40
2019-06-26T14:15:14.878Z,37.50
2019-06-26T14:17:43.440Z,37.50
2019-06-26T14:20:12.366Z,37.50
2019-06-26T14:22:40.924Z,37.50
2019-06-26T14:25:10.719Z,37.50
2019-06-26T14:27:39.353Z,37.50
2019-06-26T14:30:08.857Z,37.50
2019-06-26T14:32:37.441Z,37.40
2019-06-26T14:35:06.366Z,37.50
2019-06-26T14:37:34.879Z,37.50
2019-06-26T14:40:05.106Z,37.40
2019-06-26T14:42:33.799Z,37.30
2019-06-26T14:45:02.344Z,37.20
2019-06-26T14:47:30.870Z,37.10
2019-06-26T14:49:59.430Z,37.10
2019-06-26T14:52:27.994Z,36.90
2019-06-26T14:54:56.555Z,36.80
2019-06-26T14:57:26.086Z,36.80
2019-06-26T14:59:54.774Z,36.90
2019-06-26T15:02:23.321Z,36.90
2019-06-26T15:04:51.812Z,36.90
2019-06-26T15:07:21.751Z,36.80
2019-06-26T15:09:50.394Z,36.70
2019-06-26T15:12:19.108Z,36.70
2019-06-26T15:14:47.842Z,36.70
2019-06-26T15:17:16.454Z,36.70
2019-06-26T15:19:44.946Z,36.60
2019-06-26T15:22:13.456Z,36.70
2019-06-26T15:24:42.011Z,36.60
2019-06-26T15:27:10.596Z,36.60
2019-06-26T15:29:39.138Z,36.60
2019-06-26T15:32:07.784Z,36.50
2019-06-26T15:34:36.348Z,36.50
2019-06-26T15:37:04.890Z,36.50
2019-06-26T15:39:33.463Z,36.40
2019-06-26T15:42:02.024Z,36.40
2019-06-26T15:44:30.584Z,36.40
2019-06-26T15:46:59.147Z,36.40
2019-06-26T15:49:27.718Z,36.30
2019-06-26T15:51:56.278Z,36.30
2019-06-26T15:54:24.918Z,36.20
2019-06-26T15:56:53.409Z,36.20
2019-06-26T15:59:21.977Z,36.30
2019-06-26T16:01:50.471Z,36.20
2019-06-26T16:04:20.513Z,36.20
2019-06-26T16:06:49.086Z,36.20
2019-06-26T16:09:17.774Z,36.20
2019-06-26T16:11:46.446Z,36.20
2019-06-26T16:14:15.044Z,36.20
2019-06-26T16:16:45.238Z,36.20
2019-06-26T16:19:18.409Z,36.10
2019-06-26T16:21:46.975Z,36.00
2019-06-26T16:24:15.533Z,36.00
2019-06-26T16:26:44.104Z,35.90
2019-06-26T16:29:14.732Z,35.90
2019-06-26T16:31:43.187Z,35.90
2019-06-26T16:34:11.754Z,35.90
2019-06-26T16:36:40.338Z,35.80
2019-06-26T16:39:09.070Z,35.80
2019-06-26T16:41:37.645Z,35.80
2019-06-26T16:44:06.724Z,35.80
2019-06-26T16:46:35.287Z,35.70
2019-06-26T16:49:03.854Z,35.70
2019-06-26T16:51:32.360Z,35.70
2019-06-26T16:54:00.936Z,35.70
2019-06-26T16:56:29.490Z,35.60
2019-06-26T16:58:58.071Z,35.60
2019-06-26T17:01:26.613Z,35.50
2019-06-26T17:03:55.186Z,35.50
2019-06-26T17:06:23.744Z,35.50
2019-06-26T17:08:52.314Z,35.40
2019-06-26T17:11:21.700Z,35.40
2019-06-26T17:13:50.234Z,35.30
2019-06-26T17:16:18.754Z,35.30
2019-06-26T17:18:47.319Z,35.20
2019-06-26T17:21:15.801Z,35.30
2019-06-26T17:23:44.363Z,35.20
2019-06-26T17:26:12.935Z,35.20
2019-06-26T17:28:41.491Z,35.20
2019-06-26T17:31:10.071Z,35.20
2019-06-26T17:33:38.645Z,35.10
2019-06-26T17:36:07.214Z,35.00
2019-06-26T17:38:35.847Z,35.00
2019-06-26T17:41:04.563Z,35.00
2019-06-26T17:43:33.114Z,35.00
2019-06-26T17:46:01.680Z,34.90
2019-06-26T17:48:30.235Z,34.90
2019-06-26T17:50:58.794Z,34.90
2019-06-26T17:53:27.297Z,34.90
2019-06-26T17:55:55.850Z,34.80
2019-06-26T17:58:25.556Z,34.80
2019-06-26T18:00:54.219Z,34.70
2019-06-26T18:03:22.721Z,34.70
2019-06-26T18:05:51.273Z,34.60
2019-06-26T18:08:19.844Z,34.60
2019-06-26T18:10:48.326Z,34.60
2019-06-26T18:13:16.904Z,34.60
2019-06-26T18:15:45.446Z,34.50
2019-06-26T18:18:14.026Z,34.40
2019-06-26T18:20:42.690Z,34.40
2019-06-26T18:23:11.275Z,34.40
2019-06-26T18:25:39.814Z,34.40
2019-06-26T18:28:08.381Z,34.30
2019-06-26T18:30:36.925Z,34.30
2019-06-26T18:33:05.502Z,34.30
2019-06-26T18:35:34.050Z,34.20
2019-06-26T18:38:02.623Z,34.10
2019-06-26T18:40:31.189Z,34.10
2019-06-26T18:42:59.968Z,34.10
2019-06-26T18:45:28.518Z,34.00
2019-06-26T18:47:57.121Z,34.00
2019-06-26T18:50:25.615Z,33.90
2019-06-26T18:52:54.190Z,33.90
2019-06-26T18:55:22.744Z,33.90
2019-06-26T18:57:51.360Z,33.90
2019-06-26T19:00:20.740Z,33.80
2019-06-26T19:02:49.386Z,33.80
2019-06-26T19:05:17.930Z,33.70
2019-06-26T19:07:46.513Z,33.70
2019-06-26T19:10:15.370Z,33.70
2019-06-26T19:12:43.970Z,33.60
2019-06-26T19:15:13.166Z,33.60
2019-06-26T19:17:42.717Z,33.50
2019-06-26T19:20:11.946Z,33.50
2019-06-26T19:22:40.498Z,33.40
2019-06-26T19:25:09.602Z,33.40
2019-06-26T19:27:38.151Z,33.30
2019-06-26T19:30:11.702Z,33.30
2019-06-26T19:32:40.288Z,33.30
2019-06-26T19:35:18.644Z,33.20
2019-06-26T19:37:39.216Z,33.20
2019-06-26T19:40:08.951Z,33.20
2019-06-26T19:42:37.855Z,33.10
2019-06-26T19:45:08.624Z,33.10
2019-06-26T19:47:37.107Z,33.00
2019-06-26T19:50:07.732Z,32.90
2019-06-26T19:52:36.526Z,32.90
2019-06-26T19:55:06.566Z,32.90
2019-06-26T19:57:35.139Z,32.90
2019-06-26T20:00:04.979Z,32.90
2019-06-26T20:02:33.596Z,32.80
2019-06-26T20:05:02.289Z,32.80
2019-06-26T20:07:30.855Z,32.70
2019-06-26T20:10:01.762Z,32.60
2019-06-26T20:12:29.653Z,32.60
2019-06-26T20:14:58.232Z,32.70
2019-06-26T20:17:26.962Z,32.60
2019-06-26T20:19:55.589Z,32.50
2019-06-26T20:22:24.134Z,32.50
2019-06-26T20:24:52.632Z,32.40
2019-06-26T20:27:22.448Z,32.40
2019-06-26T20:29:50.977Z,32.40
2019-06-26T20:32:19.468Z,32.30
2019-06-26T20:34:48.020Z,32.30
2019-06-26T20:37:16.693Z,32.30
2019-06-26T20:39:45.250Z,32.30
2019-06-26T20:42:13.806Z,32.30
2019-06-26T20:44:42.458Z,32.30
2019-06-26T20:47:11.086Z,32.30
2019-06-26T20:49:52.539Z,32.20
2019-06-26T20:52:09.908Z,32.20
2019-06-26T20:54:38.643Z,32.20
2019-06-26T20:57:07.302Z,32.20
2019-06-26T20:59:35.862Z,32.10
2019-06-26T21:02:04.432Z,32.00
2019-06-26T21:04:32.995Z,31.90
2019-06-26T21:07:01.574Z,31.80
2019-06-26T21:09:30.134Z,31.80
2019-06-26T21:11:59.278Z,31.90
2019-06-26T21:14:27.900Z,31.90
2019-06-26T21:16:56.399Z,31.80
2019-06-26T21:19:24.949Z,31.80
2019-06-26T21:21:53.481Z,31.80
2019-06-26T21:24:22.044Z,31.70
2019-06-26T21:26:50.535Z,31.60
2019-06-26T21:29:19.092Z,31.60
2019-06-26T21:31:47.648Z,31.60
2019-06-26T21:34:16.216Z,31.50
2019-06-26T21:36:44.708Z,31.50
2019-06-26T21:39:13.282Z,31.50
2019-06-26T21:41:41.824Z,31.40
2019-06-26T21:44:10.410Z,31.40
2019-06-26T21:46:38.968Z,31.40
2019-06-26T21:49:07.532Z,31.30
2019-06-26T21:51:36.130Z,31.30
2019-06-26T21:54:04.750Z,31.30
2019-06-26T21:56:33.312Z,31.20
2019-06-26T21:59:01.845Z,31.20
2019-06-26T22:01:30.668Z,31.20
2019-06-26T22:03:59.732Z,31.20
2019-06-26T22:06:28.572Z,31.10
2019-06-26T22:08:57.115Z,31.10
2019-06-26T22:11:25.859Z,31.00
2019-06-26T22:13:54.450Z,31.10
2019-06-26T22:16:22.972Z,31.10
2019-06-26T22:18:51.530Z,31.10
2019-06-26T22:21:20.103Z,31.00
2019-06-26T22:23:48.708Z,31.00
2019-06-26T22:26:17.328Z,30.90
2019-06-26T22:28:45.838Z,30.90
2019-06-26T22:31:14.412Z,30.90
2019-06-26T22:33:42.962Z,30.90
2019-06-26T22:36:11.609Z,30.80
2019-06-26T22:38:40.162Z,30.70
2019-06-26T22:41:08.709Z,30.70
2019-06-26T22:43:37.283Z,30.70
2019-06-26T22:46:05.837Z,30.70
2019-06-26T22:48:34.407Z,30.70
2019-06-26T22:51:02.954Z,30.70
2019-06-26T22:53:31.538Z,30.70
2019-06-26T22:56:07.546Z,30.70
2019-06-26T22:58:30.297Z,30.60
2019-06-26T23:00:58.922Z,30.60
2019-06-26T23:03:27.900Z,30.50
2019-06-26T23:05:56.454Z,30.40
2019-06-26T23:08:25.018Z,30.50
2019-06-26T23:10:53.636Z,30.40
2019-06-26T23:13:22.384Z,30.30
2019-06-26T23:15:51.474Z,30.30
2019-06-26T23:18:20.155Z,30.10
2019-06-26T23:20:48.693Z,30.00
2019-06-26T23:23:17.263Z,30.00
2019-06-26T23:25:45.815Z,30.10
2019-06-26T23:28:14.377Z,30.10
2019-06-26T23:30:42.922Z,29.90
2019-06-26T23:33:11.426Z,29.90
2019-06-26T23:35:39.987Z,29.80
2019-06-26T23:38:08.536Z,29.90
2019-06-26T23:40:37.125Z,29.80
2019-06-26T23:43:05.658Z,29.80
2019-06-26T23:45:34.252Z,29.70
2019-06-26T23:48:02.796Z,29.80
2019-06-26T23:50:31.364Z,29.80
2019-06-26T23:52:59.942Z,29.60
2019-06-26T23:55:28.492Z,29.60
2019-06-26T23:57:59.379Z,29.50
